Airfield :
LOGIN :

Register | Disclaimer

   EN    FR    IT 

 










Legend :    VFR   Marginal VFR   IFR   Intensive IFR   Very Intensive IFR
Visi :
Ceiling :
>= 8 km
>= 3000ft
5 to 8 km
1000 to 3000 ft
1500m to 5 km
500 to 1000 ft
800 to 1500m
200 to 500 ft
< 800m
< 200 ft
Symbols :   Thunderstorms  Fog  Heavy snow  Heavy precipitations  Wind > 20 kt
SIGMETs :     Misc.  Thunderstorms  Icing  Turbulence  Mountain Waves  Volcanic Ashes






- Airport Elevation : 187 ft


ETNW - Wunstorf AB

CURRENT METAR :
  • 271400Z 11004KT 4000 BR BKN004 07/06 Q1020 YLO FCST CNL

EXPIRED METARs :
  • 271320Z 10005KT 4000 BR SCT004 BKN005 07/06 Q1020 YLO YLO TEMPO GRN
  • 271220Z 12007KT 3500 BR BKN005 07/06 Q1020 YLO YLO TEMPO GRN
  • 271150Z 14006KT 3500 BR BKN004 06/06 Q1021 YLO YLO TEMPO RED
  • 271120Z 15006KT 2000 BR BKN002 06/06 Q1021 AMB YLO TEMPO RED

TAF TAF ETNW
Valid from the 27 at 12:00 until the 28 at 12:00 UTC


271100Z 2712/2812 12005KT 2000 BR BKN003
TEMPO 2712/2713 10005KT 0700 FG BKN001
TEMPO 2713/2717 12007KT 4000 BR BKN007
TEMPO 2720/2808 10004KT 0700 FG BKN001 BY ETGL



MET'MAP, your aeronautical weather chart ! - Copyright ORBIFLY December 2007 - Disclaimer

ORBIFLY MET'MAP TEAM :

Programming & Development : Alexandra Zaïnal
Concept & original design : Baudouin d'Aumeries
Assistance for programming : Marc-Olivier Méhu
Technical & hardware support : Manuel Goepfert

Contact : metmap@orbifly.com




SOURCES & CREDITS :

   NOAA